Kezdőlap
METAR-TAF:

METAR-TAF

Repülőterek :

Iowa County Airport

Mineral Point, Wisconsin, Amerikai Egyesült Államok

földrajzi szélesség: 42-53-07N, földrajzi hosszúság: 090-13-55W, magasság: 359 m

Jelenlegi meteorológiai megfigyelések

A jelentés 29 perccel ezelõtt készült, 15:15 UTC
Északnyugati szél 7 kt széllökések: 14 kt
Hőmérséklet 10°C
Páratartalom 87%
Légköri nyomás 1017 hPa
Látótávolság: 16.1 km
Szakadozott felhőzet 900 lábon
Borult 1500 lábon

METAR: KMRJ 011515Z AUTO 32007G14KT 10SM BKN009 OVC015 10/08 A3004 RMK AO2

Idő: 10:44 (15:44 UTC)


TAF: hiányzik

Meteorológiai megfigyelések és előrejelzések több, mint 4000 repülőtéren (METAR és TAF jelentéseket).

A térképen piros és sárga pontok jelzik az elérhető meteorológiai állomásokat.

Mozgassa az egeret a pont fölött, hogy megjelenjen az állomás neve.

Azután kattintson az időjárási megfigyelések és előrejelzések megtekintéséhez.

A térkép megváltoztatása: kattintson a fekete keresztel jelölt zöld gombra ráközelítéshez, a vonallal jelölt zöld gombra távolításhoz, vagy a zöld nyilakra a szomszédos térképek eléréséhez.


METAR-TAF: